createdAt,value
2018-12-31T00:07:24.188Z,3.30
2018-12-31T00:12:27.757Z,3.26
2018-12-31T00:17:31.126Z,3.18
2018-12-31T00:22:34.686Z,3.23
2018-12-31T00:27:38.792Z,3.29
2018-12-31T00:32:42.260Z,3.17
2018-12-31T00:37:47.515Z,3.12
2018-12-31T00:42:50.990Z,3.14
2018-12-31T00:47:54.434Z,3.14
2018-12-31T00:52:58.349Z,2.92
2018-12-31T00:58:02.112Z,2.96
2018-12-31T01:03:05.649Z,3.08
2018-12-31T01:08:09.141Z,3.17
2018-12-31T01:13:12.691Z,2.98
2018-12-31T01:18:16.213Z,3.05
2018-12-31T01:23:19.724Z,3.04
2018-12-31T01:28:23.275Z,2.98
2018-12-31T01:33:27.722Z,2.94
2018-12-31T01:38:31.196Z,2.91
2018-12-31T01:43:34.687Z,2.98
2018-12-31T01:48:38.146Z,3.03
2018-12-31T01:53:41.581Z,3.03
2018-12-31T01:58:45.123Z,3.03
2018-12-31T02:03:49.145Z,3.08
2018-12-31T02:08:52.624Z,3.06
2018-12-31T02:13:55.956Z,3.03
2018-12-31T02:18:59.502Z,3.00
2018-12-31T02:24:03.060Z,2.93
2018-12-31T02:29:06.646Z,2.85
2018-12-31T02:34:10.123Z,2.87
2018-12-31T02:39:13.520Z,2.63
2018-12-31T02:44:17.194Z,2.81
2018-12-31T02:49:20.751Z,2.74
2018-12-31T02:54:24.195Z,2.76
2018-12-31T02:59:27.616Z,2.51
2018-12-31T03:04:31.125Z,2.54
2018-12-31T03:09:34.674Z,2.61
2018-12-31T03:14:37.988Z,2.74
2018-12-31T03:19:41.269Z,2.74
2018-12-31T03:24:44.679Z,2.59
2018-12-31T03:29:48.261Z,2.61
2018-12-31T03:34:51.919Z,2.68
2018-12-31T03:39:55.460Z,2.67
2018-12-31T03:44:58.828Z,2.63
2018-12-31T03:50:02.314Z,2.61
2018-12-31T03:55:05.928Z,2.72
2018-12-31T04:00:09.536Z,2.59
2018-12-31T04:05:13.295Z,2.49
2018-12-31T04:10:16.623Z,2.49
2018-12-31T04:15:20.001Z,2.61
2018-12-31T04:20:23.444Z,2.71
2018-12-31T04:25:26.790Z,2.50
2018-12-31T04:30:30.288Z,2.40
2018-12-31T04:35:33.553Z,2.14
2018-12-31T04:40:36.897Z,2.20
2018-12-31T04:45:40.285Z,2.34
2018-12-31T04:50:43.651Z,2.20
2018-12-31T04:55:46.993Z,2.13
2018-12-31T05:00:50.465Z,2.13
2018-12-31T05:05:53.816Z,2.31
2018-12-31T05:10:58.450Z,2.27
2018-12-31T05:16:01.745Z,2.43
2018-12-31T05:21:05.101Z,2.58
2018-12-31T05:26:08.447Z,2.52
2018-12-31T05:31:11.853Z,2.56
2018-12-31T05:36:15.298Z,2.54
2018-12-31T05:41:18.578Z,2.55
2018-12-31T05:46:22.037Z,2.66
2018-12-31T05:51:25.465Z,2.64
2018-12-31T05:56:28.651Z,2.43
2018-12-31T06:01:32.140Z,2.56
2018-12-31T06:06:35.516Z,2.64
2018-12-31T06:11:38.950Z,2.51
2018-12-31T06:16:42.374Z,2.55
2018-12-31T06:21:45.665Z,2.48
2018-12-31T06:26:49.020Z,2.31
2018-12-31T06:31:52.723Z,2.43
2018-12-31T06:36:56.331Z,2.51
2018-12-31T06:41:59.873Z,2.52
2018-12-31T06:47:05.274Z,2.37
2018-12-31T06:52:08.963Z,2.42
2018-12-31T06:57:13.647Z,2.52
2018-12-31T07:02:17.124Z,2.79
2018-12-31T07:07:20.732Z,2.84
2018-12-31T07:12:24.114Z,2.96
2018-12-31T07:17:27.668Z,3.12
2018-12-31T07:22:31.243Z,3.05
2018-12-31T07:27:34.891Z,3.14
2018-12-31T07:32:38.545Z,3.38
2018-12-31T07:37:42.392Z,3.60
2018-12-31T07:42:46.199Z,3.45
2018-12-31T07:47:52.118Z,3.83
2018-12-31T07:52:55.624Z,4.01
2018-12-31T07:58:00.371Z,4.22
2018-12-31T08:03:03.854Z,4.32
2018-12-31T08:08:07.283Z,4.30
2018-12-31T08:13:11.099Z,4.31
2018-12-31T08:18:14.674Z,4.33
2018-12-31T08:23:18.201Z,4.41
2018-12-31T08:28:21.560Z,4.51
2018-12-31T08:33:25.017Z,4.89
2018-12-31T08:38:28.485Z,5.07
2018-12-31T08:43:32.151Z,5.42
2018-12-31T08:48:37.344Z,5.64
2018-12-31T08:53:40.780Z,5.76
2018-12-31T08:58:44.504Z,5.55
2018-12-31T09:03:47.939Z,5.44
2018-12-31T09:08:51.468Z,5.82
2018-12-31T09:13:54.995Z,5.71
2018-12-31T09:18:58.285Z,5.75
2018-12-31T09:24:01.682Z,5.83
2018-12-31T09:29:04.999Z,5.87
2018-12-31T09:34:08.357Z,5.78
2018-12-31T09:39:11.834Z,5.89
2018-12-31T09:44:15.085Z,5.73
2018-12-31T09:49:19.540Z,5.62
2018-12-31T09:54:22.976Z,5.78
2018-12-31T09:59:26.253Z,6.00
2018-12-31T10:04:29.739Z,5.85
2018-12-31T10:09:33.214Z,5.96
2018-12-31T10:14:36.537Z,6.08
2018-12-31T10:19:39.941Z,6.10
2018-12-31T10:24:43.245Z,6.15
2018-12-31T10:29:47.182Z,6.12
2018-12-31T10:34:50.628Z,6.12
2018-12-31T10:39:53.990Z,6.09
2018-12-31T10:44:57.409Z,6.16
2018-12-31T10:50:01.682Z,6.48
2018-12-31T10:55:07.091Z,6.44
2018-12-31T11:00:10.595Z,6.62
2018-12-31T11:05:15.710Z,6.48
2018-12-31T11:10:19.615Z,6.28
2018-12-31T11:15:23.078Z,6.34
2018-12-31T11:20:26.412Z,6.57
2018-12-31T11:25:29.907Z,6.70
2018-12-31T11:30:33.275Z,6.89
2018-12-31T11:35:36.958Z,6.72
2018-12-31T11:40:40.292Z,6.60
2018-12-31T11:45:43.584Z,6.39
2018-12-31T11:50:51.669Z,6.37
2018-12-31T11:55:55.345Z,6.12
2018-12-31T12:00:58.638Z,6.01
2018-12-31T12:06:02.396Z,5.97
2018-12-31T12:11:05.822Z,5.96
2018-12-31T12:16:09.475Z,5.72
2018-12-31T12:21:12.830Z,5.80
2018-12-31T12:26:16.379Z,5.71
2018-12-31T12:31:19.916Z,5.80
2018-12-31T12:36:23.689Z,5.83
2018-12-31T12:41:27.091Z,5.77
2018-12-31T12:46:31.095Z,5.77
2018-12-31T12:51:34.506Z,5.72
2018-12-31T12:56:38.110Z,5.71
2018-12-31T13:01:41.532Z,5.71
2018-12-31T13:06:45.156Z,5.73
2018-12-31T13:11:48.499Z,5.79
2018-12-31T13:16:52.594Z,5.89
2018-12-31T13:21:56.100Z,5.97
2018-12-31T13:26:59.317Z,6.02
2018-12-31T13:32:03.674Z,5.89
2018-12-31T13:37:07.101Z,6.04
2018-12-31T13:42:10.577Z,6.17
2018-12-31T13:47:13.943Z,6.12
2018-12-31T13:52:18.217Z,6.02
2018-12-31T13:57:21.654Z,6.04
2018-12-31T14:02:24.995Z,5.97
2018-12-31T14:07:28.677Z,6.02
2018-12-31T14:12:32.196Z,5.95
2018-12-31T14:17:36.087Z,5.83
2018-12-31T14:22:39.588Z,5.85
2018-12-31T14:27:42.853Z,5.80
2018-12-31T14:32:46.296Z,5.76
2018-12-31T14:37:49.746Z,5.65
2018-12-31T14:42:53.215Z,5.66
2018-12-31T14:47:56.526Z,5.46
2018-12-31T14:52:59.961Z,5.44
2018-12-31T14:58:03.520Z,5.43
2018-12-31T15:03:07.079Z,5.37
2018-12-31T15:08:10.446Z,5.20
2018-12-31T15:13:14.216Z,5.12
2018-12-31T15:18:17.880Z,5.04
2018-12-31T15:26:56.022Z,4.90
2018-12-31T15:32:01.481Z,4.70
2018-12-31T15:37:05.615Z,4.75
2018-12-31T15:42:09.657Z,4.73
2018-12-31T15:47:13.946Z,4.80
2018-12-31T15:52:18.526Z,4.84
2018-12-31T15:57:23.568Z,4.82
2018-12-31T16:02:27.919Z,4.73
2018-12-31T16:07:32.148Z,4.66
2018-12-31T16:12:36.256Z,4.67
2018-12-31T16:17:41.278Z,4.74
2018-12-31T16:22:45.557Z,4.72
2018-12-31T16:27:50.646Z,4.77
2018-12-31T16:32:54.928Z,4.59
2018-12-31T16:37:59.169Z,4.29
2018-12-31T16:43:03.246Z,4.15
2018-12-31T16:48:07.763Z,4.23
2018-12-31T16:53:11.814Z,4.18
2018-12-31T16:58:16.393Z,4.05
2018-12-31T17:03:20.326Z,4.07
2018-12-31T17:08:24.936Z,4.04
2018-12-31T17:13:29.100Z,4.16
2018-12-31T17:18:33.060Z,3.97
2018-12-31T17:23:37.016Z,4.16
2018-12-31T17:28:41.236Z,4.09
2018-12-31T17:33:45.724Z,4.09
2018-12-31T17:38:49.618Z,3.96
2018-12-31T17:43:54.463Z,3.79
2018-12-31T17:48:58.403Z,3.91
2018-12-31T17:54:02.483Z,3.80
2018-12-31T17:59:07.381Z,3.75
2018-12-31T18:04:11.314Z,3.58
2018-12-31T18:09:15.226Z,3.53
2018-12-31T18:14:19.329Z,3.51
2018-12-31T18:19:23.553Z,3.53
2018-12-31T18:24:28.384Z,3.55
2018-12-31T18:29:32.383Z,3.57
2018-12-31T18:34:36.936Z,3.57
2018-12-31T18:39:40.995Z,3.45
2018-12-31T18:44:44.947Z,3.49
2018-12-31T18:49:49.124Z,3.43
2018-12-31T18:54:53.186Z,3.19
2018-12-31T18:59:57.214Z,3.21
2018-12-31T19:05:01.781Z,3.15
2018-12-31T19:10:05.723Z,3.03
2018-12-31T19:15:11.813Z,2.98
2018-12-31T19:20:16.186Z,2.88
2018-12-31T19:25:20.536Z,2.85
2018-12-31T19:30:24.451Z,2.75
2018-12-31T19:35:29.252Z,2.78
2018-12-31T19:40:33.923Z,2.72
2018-12-31T19:45:37.965Z,2.70
2018-12-31T19:50:42.064Z,2.67
2018-12-31T19:55:45.987Z,2.56
2018-12-31T20:00:50.115Z,2.45
2018-12-31T20:05:53.997Z,2.45
2018-12-31T20:10:58.679Z,2.25
2018-12-31T20:16:02.642Z,2.14
2018-12-31T20:21:06.611Z,2.14
2018-12-31T20:26:10.470Z,2.21
2018-12-31T20:31:14.765Z,2.02
2018-12-31T20:36:19.312Z,1.98
2018-12-31T20:41:23.535Z,2.08
2018-12-31T20:46:27.577Z,2.06
2018-12-31T20:51:31.988Z,1.94
2018-12-31T20:56:35.893Z,1.89
2018-12-31T21:01:39.797Z,1.81
2018-12-31T21:06:43.729Z,1.79
2018-12-31T21:11:47.753Z,1.78
2018-12-31T21:16:51.848Z,1.75
2018-12-31T21:21:55.832Z,1.63
2018-12-31T21:27:01.147Z,1.59
2018-12-31T21:32:05.134Z,1.53
2018-12-31T21:37:09.615Z,1.49
2018-12-31T21:42:13.643Z,1.43
2018-12-31T21:47:17.739Z,1.28
2018-12-31T21:52:21.573Z,1.22
2018-12-31T21:57:25.652Z,1.06
2018-12-31T22:02:29.437Z,0.94
2018-12-31T22:07:33.837Z,0.97
2018-12-31T22:12:37.699Z,0.85
2018-12-31T22:17:42.102Z,0.92
2018-12-31T22:22:46.172Z,0.82
2018-12-31T22:27:50.099Z,0.84
2018-12-31T22:32:54.088Z,0.75
2018-12-31T22:37:58.364Z,0.85
2018-12-31T22:43:02.560Z,0.99
2018-12-31T22:48:06.921Z,0.98
2018-12-31T22:53:11.011Z,1.01
2018-12-31T22:58:14.920Z,1.06
2018-12-31T23:03:18.821Z,1.17
2018-12-31T23:08:22.846Z,1.21
2018-12-31T23:13:30.350Z,1.18
2018-12-31T23:18:34.410Z,1.28
2018-12-31T23:23:38.657Z,1.41
2018-12-31T23:28:42.933Z,1.48
2018-12-31T23:33:46.958Z,1.51
2018-12-31T23:38:51.144Z,1.56
2018-12-31T23:43:55.057Z,1.64
2018-12-31T23:48:59.223Z,1.56
2018-12-31T23:54:03.175Z,1.52
2018-12-31T23:59:07.379Z,1.48
